To NAV CANADA Home Page Login to a new session Search on AWWS site Feedback and Comments Disclaimer Vers la page française équivalente Tips FAQ What's new on the site To the Forecasts and Observations / NOTAM section To "File a Flight Plan" website Publications and other links Update of the User's profile FIC Telephone Numbers My Weather Data Folder Route Weather Data Regional Weather Data Local Weather Data To the Forecasts and Observations / NOTAM section
Request Generated 02/11/2016 at 00:18:01 UTC . Weather information available at that time is displayed.

METAR/TAF

LOURDES-DE-BLANC-SABLON/QC    

METAR CYBX 110000Z 05015KT 3SM -SN OVC020 M03/M05 A2938 RMK SC8
SLP954=
SPECI CYBX 102324Z 05015KT 3SM -SN OVC020 M03/M05 A2938 RMK SC8
SLP953=
METAR CYBX 102300Z 05018KT 2SM -SN OVC020 M03/M05 A2937 RMK SC8
SLP951=
SPECI CYBX 102250Z 05017KT 2SM -SN OVC020 M03/M05 A2937 RMK SC8
SLP950=
METAR CYBX 102200Z 05014G20KT 3SM -SN OVC025 M03/M04 A2937 RMK SC8
SLP950=

TAF CYBX 101938Z 1020/1108 04020G30KT 11/4SM -SN BLSN OVC015 TEMPO
1020/1021 6SM -SN SCT015 OVC040
FM102100 04018G28KT 6SM -SN OVC040 TEMPO 1021/1102 11/2SM -SN
BLSN OVC020
BECMG 1022/1024 03012G22KT
FM110200 VRB03KT 1SM -SN VV008 TEMPO 1102/1108 4SM -SN OVC015
RMK NXT FCST BY 110200Z=
Your time UTC time
Weather data provided by Environment Canada and NAV CANADA